Time;durP1;ratioP1;P1;durP2;ratioP2;P2;SDS_P1;SDS_P2;PMS_P1;PMS_P2;Temp;Humidity;BMP_temperature;BMP_pressure;BME280_temperature;BME280_humidity;BME280_pressure;Samples;Min_cycle;Max_cycle;Signal;HPM_P1;HPM_P2
2023/07/19 00:01:23;;;;;;;6.80;2.70;;;19.60;55.40;;;;;;5044201;28;20049;-84
2023/07/19 00:03:49;;;;;;;6.38;3.03;;;19.70;99.90;;;;;;5030808;28;20030;-83
2023/07/19 00:06:15;;;;;;;3.63;2.50;;;19.60;99.90;;;;;;5030760;28;20021;-82
2023/07/19 00:08:41;;;;;;;5.78;2.85;;;19.40;99.90;;;;;;5040175;28;20030;-83
2023/07/19 00:11:07;;;;;;;4.10;2.60;;;19.30;99.90;;;;;;5024338;28;20041;-82
2023/07/19 00:13:33;;;;;;;5.30;3.17;;;19.20;99.90;;;;;;5036257;28;20038;-82
2023/07/19 00:16:00;;;;;;;4.72;2.97;;;19.30;99.90;;;;;;5042983;28;20029;-83
2023/07/19 00:18:26;;;;;;;9.48;3.35;;;19.30;99.90;;;;;;5039674;28;20387;-84
2023/07/19 00:20:52;;;;;;;5.07;3.92;;;19.30;99.90;;;;;;5036848;28;20087;-82
2023/07/19 00:23:18;;;;;;;3.97;3.28;;;19.30;99.90;;;;;;5034710;28;20485;-83
2023/07/19 00:25:45;;;;;;;5.85;3.38;;;19.20;99.90;;;;;;5037992;28;20033;-83
2023/07/19 00:28:12;;;;;;;3.60;2.47;;;19.10;99.90;;;;;;5038551;28;20111;-83
2023/07/19 00:30:38;;;;;;;5.13;2.65;;;19.20;99.90;;;;;;5040683;28;20029;-83
2023/07/19 00:33:04;;;;;;;4.18;3.00;;;19.10;99.90;;;;;;5037653;28;20045;-83
2023/07/19 00:35:33;;;;;;;5.00;2.90;;;19.10;99.90;;;;;;5032360;28;20046;-82
2023/07/19 00:37:59;;;;;;;4.60;2.75;;;19.10;99.90;;;;;;5035721;28;20041;-81
2023/07/19 00:40:25;;;;;;;4.85;3.22;;;19.10;99.90;;;;;;5036047;28;20029;-83
2023/07/19 00:42:57;;;;;;;5.00;3.60;;;19.10;99.90;;;;;;5038390;28;20052;-82
2023/07/19 00:49:06;;;;;;;4.47;3.05;;;19.00;99.90;;;;;;5044584;28;20044;-83
2023/07/19 00:51:32;;;;;;;2.95;2.25;;;19.10;99.90;;;;;;5036061;28;20045;-83
2023/07/19 00:53:59;;;;;;;4.95;3.00;;;19.20;99.90;;;;;;5034521;28;20458;-82
2023/07/19 00:56:26;;;;;;;4.85;2.70;;;19.10;99.90;;;;;;5053474;28;20041;-82
2023/07/19 00:58:53;;;;;;;7.35;3.58;;;19.10;99.90;;;;;;5033394;28;20032;-82
2023/07/19 01:01:23;;;;;;;6.80;3.28;;;19.00;99.90;;;;;;5036829;28;20053;-83
2023/07/19 01:03:49;;;;;;;4.55;2.70;;;19.00;99.90;;;;;;5032217;28;20033;-82
2023/07/19 01:06:20;;;;;;;4.15;3.03;;;18.90;99.90;;;;;;5039292;28;20036;-83
2023/07/19 01:08:48;;;;;;;4.93;3.03;;;18.90;99.90;;;;;;5041626;28;20036;-85
2023/07/19 01:11:15;;;;;;;5.53;3.00;;;18.80;99.90;;;;;;5032280;28;20395;-82
2023/07/19 01:13:52;;;;;;;5.20;3.72;;;18.60;99.90;;;;;;5039281;28;20037;-83
2023/07/19 01:16:18;;;;;;;5.28;3.47;;;18.50;99.90;;;;;;5048863;28;20037;-81
2023/07/19 01:18:45;;;;;;;7.38;3.78;;;18.40;99.90;;;;;;5048606;28;20045;-83
2023/07/19 01:21:12;;;;;;;8.18;3.00;;;18.30;99.90;;;;;;5032104;28;20048;-82
2023/07/19 01:23:39;;;;;;;5.20;3.20;;;18.20;99.90;;;;;;5036244;28;20493;-82
2023/07/19 01:26:05;;;;;;;7.50;3.55;;;18.10;99.90;;;;;;5034229;28;20033;-83
2023/07/19 01:28:31;;;;;;;5.35;2.95;;;17.90;99.90;;;;;;5035177;28;20037;-82
2023/07/19 01:31:01;;;;;;;6.90;3.33;;;17.90;99.90;;;;;;5036476;28;20029;-81
2023/07/19 01:33:27;;;;;;;5.35;3.38;;;17.80;99.90;;;;;;5053952;28;20466;-81
2023/07/19 01:35:53;;;;;;;4.22;2.75;;;17.80;99.90;;;;;;5053028;28;20044;-81
2023/07/19 01:38:20;;;;;;;5.45;3.28;;;17.90;99.90;;;;;;5033093;28;20064;-82
2023/07/19 01:40:46;;;;;;;5.35;3.67;;;17.90;99.90;;;;;;5035778;28;20033;-82
2023/07/19 01:43:12;;;;;;;5.97;3.35;;;17.90;99.90;;;;;;5046535;28;20808;-82
2023/07/19 01:45:39;;;;;;;7.63;3.28;;;17.90;99.90;;;;;;5035822;28;20056;-84
2023/07/19 01:48:05;;;;;;;6.35;3.40;;;17.80;99.90;;;;;;5039529;28;20055;-82
2023/07/19 01:50:32;;;;;;;5.57;3.05;;;17.60;99.90;;;;;;5036205;28;20041;-83
2023/07/19 01:52:58;;;;;;;7.90;3.60;;;17.50;99.90;;;;;;5033085;28;20041;-83
2023/07/19 01:55:24;;;;;;;3.88;3.22;;;17.50;99.90;;;;;;5039445;28;20045;-82
2023/07/19 01:57:51;;;;;;;5.78;3.47;;;17.40;99.90;;;;;;5038828;28;20498;-82
2023/07/19 02:00:17;;;;;;;8.18;2.72;;;17.50;99.90;;;;;;5038266;28;20422;-81
2023/07/19 02:02:45;;;;;;;4.28;3.28;;;17.60;99.90;;;;;;5029436;28;20045;-82
2023/07/19 02:05:11;;;;;;;6.47;3.33;;;17.70;99.90;;;;;;5031609;28;20053;-82
2023/07/19 02:07:37;;;;;;;5.78;3.00;;;17.70;99.90;;;;;;5032931;28;20046;-83
2023/07/19 02:10:05;;;;;;;6.47;4.00;;;17.70;99.90;;;;;;5037960;28;20029;-83
2023/07/19 02:12:31;;;;;;;8.23;3.90;;;17.60;99.90;;;;;;5034965;28;20512;-83
2023/07/19 02:14:58;;;;;;;4.35;2.80;;;17.40;99.90;;;;;;5052346;28;20144;-83
2023/07/19 02:17:24;;;;;;;5.35;3.67;;;17.40;99.90;;;;;;5033062;28;20026;-83
2023/07/19 02:19:50;;;;;;;5.30;2.75;;;17.30;99.90;;;;;;5036734;28;20385;-81
2023/07/19 02:22:16;;;;;;;5.88;3.33;;;17.20;99.90;;;;;;5035743;28;20025;-82
2023/07/19 02:24:43;;;;;;;7.15;3.15;;;17.10;99.90;;;;;;5032784;28;20045;-82
2023/07/19 02:27:09;;;;;;;4.57;3.17;;;17.10;99.90;;;;;;5031251;28;20045;-83
2023/07/19 02:29:35;;;;;;;4.80;2.92;;;17.20;99.90;;;;;;5033308;28;20042;-82
2023/07/19 02:32:04;;;;;;;5.18;3.22;;;17.10;99.90;;;;;;5032722;28;20042;-82
2023/07/19 02:34:30;;;;;;;6.47;3.63;;;17.10;99.90;;;;;;5032468;28;20040;-82
2023/07/19 02:36:57;;;;;;;7.15;3.85;;;16.90;99.90;;;;;;5035013;28;20068;-84
2023/07/19 02:39:26;;;;;;;4.70;3.33;;;16.90;99.90;;;;;;5031459;28;20037;-83
2023/07/19 02:41:52;;;;;;;4.82;3.05;;;17.10;99.90;;;;;;5036449;28;20052;-82
2023/07/19 02:44:22;;;;;;;5.38;3.97;;;17.10;99.90;;;;;;5048046;28;20036;-82
2023/07/19 02:46:48;;;;;;;5.70;3.63;;;17.20;99.90;;;;;;5029696;28;20036;-81
2023/07/19 02:49:14;;;;;;;5.90;3.72;;;17.20;99.90;;;;;;5033892;28;20060;-82
2023/07/19 02:51:40;;;;;;;5.30;3.47;;;17.10;99.90;;;;;;5032210;28;20037;-83
2023/07/19 02:54:06;;;;;;;7.40;3.65;;;17.10;99.90;;;;;;5037370;28;20037;-82
2023/07/19 02:56:32;;;;;;;5.40;3.25;;;17.20;99.90;;;;;;5043196;28;20033;-82
2023/07/19 02:58:59;;;;;;;6.30;3.72;;;17.20;99.90;;;;;;5033519;28;20053;-81
2023/07/19 03:01:25;;;;;;;7.25;4.28;;;17.20;99.90;;;;;;5031484;28;20033;-82
2023/07/19 03:03:51;;;;;;;6.65;3.60;;;17.10;99.90;;;;;;5025407;28;20144;-81
2023/07/19 03:06:17;;;;;;;4.97;3.17;;;17.10;99.90;;;;;;5028181;28;20242;-81
2023/07/19 03:08:44;;;;;;;7.93;3.75;;;17.00;99.90;;;;;;5025100;28;20046;-82
2023/07/19 03:11:10;;;;;;;5.78;4.05;;;17.10;99.90;;;;;;5035795;28;20401;-83
2023/07/19 03:13:36;;;;;;;6.35;3.45;;;17.20;99.90;;;;;;5036601;28;20052;-83
2023/07/19 03:16:04;;;;;;;4.97;3.42;;;17.10;99.90;;;;;;5050815;28;20049;-82
2023/07/19 03:18:30;;;;;;;5.30;2.88;;;17.00;99.90;;;;;;5053051;28;20462;-82
2023/07/19 03:21:01;;;;;;;6.88;3.60;;;17.00;99.90;;;;;;5032399;28;20030;-83
2023/07/19 03:23:31;;;;;;;5.78;4.13;;;17.00;99.90;;;;;;5055884;28;20036;-84
2023/07/19 03:25:58;;;;;;;8.38;3.58;;;17.00;99.90;;;;;;5033568;28;20482;-83
2023/07/19 03:28:27;;;;;;;5.80;3.75;;;17.00;99.90;;;;;;5045303;28;20041;-83
2023/07/19 03:30:54;;;;;;;6.78;4.10;;;17.00;99.90;;;;;;5027258;28;20049;-83
2023/07/19 03:33:22;;;;;;;5.85;3.78;;;17.00;99.90;;;;;;5035686;28;20049;-83
2023/07/19 03:35:48;;;;;;;6.55;3.72;;;17.10;99.90;;;;;;5039809;28;20148;-84
2023/07/19 03:38:15;;;;;;;4.95;3.33;;;17.20;99.90;;;;;;5031740;28;20029;-81
2023/07/19 03:40:42;;;;;;;5.70;3.00;;;17.10;99.90;;;;;;5032125;28;20038;-83
2023/07/19 03:43:09;;;;;;;6.15;3.85;;;17.10;99.90;;;;;;5019986;28;20474;-82
2023/07/19 03:45:37;;;;;;;5.40;3.83;;;17.00;99.90;;;;;;5054492;28;20581;-83
2023/07/19 03:48:03;;;;;;;5.57;3.88;;;17.00;99.90;;;;;;5038145;28;20045;-84
2023/07/19 03:50:32;;;;;;;4.18;3.13;;;17.00;99.90;;;;;;5038631;28;20140;-82
2023/07/19 03:52:59;;;;;;;6.50;3.75;;;17.00;99.90;;;;;;5036477;28;20507;-81
2023/07/19 03:55:25;;;;;;;7.35;3.92;;;17.10;99.90;;;;;;5033916;28;20029;-83
2023/07/19 03:57:51;;;;;;;5.32;3.60;;;17.10;99.90;;;;;;5029664;28;20049;-82
2023/07/19 04:00:19;;;;;;;5.35;4.15;;;17.00;99.90;;;;;;5050515;28;20054;-83
2023/07/19 04:02:45;;;;;;;8.20;3.72;;;17.00;99.90;;;;;;5036014;28;20051;-82
2023/07/19 04:05:14;;;;;;;6.03;3.03;;;17.00;99.90;;;;;;5052979;28;20049;-82
2023/07/19 04:07:40;;;;;;;5.95;4.30;;;17.00;99.90;;;;;;5051727;28;20064;-82
2023/07/19 04:10:06;;;;;;;10.38;3.85;;;17.00;99.90;;;;;;5051732;28;20060;-82
2023/07/19 04:12:32;;;;;;;5.28;3.53;;;17.00;99.90;;;;;;5033438;28;20465;-82
2023/07/19 04:14:58;;;;;;;7.10;4.03;;;16.90;99.90;;;;;;5036807;28;20041;-82
2023/07/19 04:17:27;;;;;;;7.15;3.80;;;16.90;99.90;;;;;;5044436;28;20033;-83
2023/07/19 04:19:53;;;;;;;8.60;3.45;;;16.90;99.90;;;;;;5033755;28;20048;-82
2023/07/19 04:22:20;;;;;;;7.68;4.13;;;16.90;99.90;;;;;;5034769;28;20042;-82
2023/07/19 04:24:47;;;;;;;6.78;4.38;;;17.00;99.90;;;;;;5031013;28;20044;-82
2023/07/19 04:27:13;;;;;;;6.35;3.92;;;17.10;99.90;;;;;;5039303;28;20045;-82
2023/07/19 04:29:40;;;;;;;5.93;3.58;;;17.30;99.90;;;;;;5032134;28;20052;-82
2023/07/19 04:32:07;;;;;;;4.60;3.63;;;17.30;99.90;;;;;;5048596;28;20049;-82
2023/07/19 04:34:33;;;;;;;8.05;3.47;;;17.30;99.90;;;;;;5028186;28;20041;-82
2023/07/19 04:37:00;;;;;;;6.45;4.32;;;17.50;99.90;;;;;;5031173;28;20041;-84
2023/07/19 04:39:28;;;;;;;6.60;4.63;;;17.70;99.90;;;;;;5046403;28;20037;-81
2023/07/19 04:41:55;;;;;;;6.72;5.00;;;17.90;99.90;;;;;;5054526;28;20053;-82
2023/07/19 04:44:22;;;;;;;6.20;4.07;;;18.00;99.90;;;;;;5035170;28;20052;-81
2023/07/19 04:46:49;;;;;;;6.65;4.35;;;18.20;99.90;;;;;;5036364;28;20056;-82
2023/07/19 04:49:15;;;;;;;5.38;3.55;;;18.30;99.90;;;;;;5050472;28;20041;-82
2023/07/19 04:51:42;;;;;;;6.63;4.18;;;18.30;99.90;;;;;;5034856;28;20025;-83
2023/07/19 04:54:08;;;;;;;6.13;4.32;;;18.30;99.90;;;;;;5032349;28;20037;-84
2023/07/19 04:56:34;;;;;;;5.85;3.75;;;18.40;99.90;;;;;;5029851;28;20402;-83
2023/07/19 04:59:01;;;;;;;10.93;4.85;;;18.60;99.90;;;;;;5033934;28;20069;-85
2023/07/19 05:01:27;;;;;;;7.68;3.72;;;18.70;99.90;;;;;;5049723;28;20045;-84
2023/07/19 05:03:53;;;;;;;9.43;4.57;;;18.80;99.90;;;;;;5048373;28;20045;-83
2023/07/19 05:06:19;;;;;;;5.95;4.53;;;19.20;99.90;;;;;;5034905;28;20041;-84
2023/07/19 05:08:46;;;;;;;5.20;3.78;;;19.70;99.90;;;;;;5048588;28;20167;-83
2023/07/19 05:11:13;;;;;;;6.50;4.60;;;20.00;99.90;;;;;;5035190;28;20056;-84
2023/07/19 05:13:39;;;;;;;7.25;4.15;;;20.40;97.80;;;;;;5036309;28;20411;-84
2023/07/19 05:16:05;;;;;;;7.88;4.45;;;20.70;61.20;;;;;;5049366;28;20033;-83
2023/07/19 05:18:31;;;;;;;9.02;4.28;;;21.10;33.10;;;;;;5048243;28;20467;-83
2023/07/19 05:20:58;;;;;;;5.80;3.55;;;21.50;1.00;;;;;;5047659;28;20048;-81
2023/07/19 05:23:24;;;;;;;8.05;4.15;;;21.80;1.00;;;;;;5035952;28;20025;-82
2023/07/19 05:25:50;;;;;;;10.90;4.68;;;21.80;1.00;;;;;;5049065;28;20061;-82
2023/07/19 05:28:18;;;;;;;6.80;4.10;;;21.90;1.00;;;;;;5032257;28;20036;-83
2023/07/19 05:30:44;;;;;;;6.95;4.30;;;21.90;1.00;;;;;;5035815;28;20041;-81
2023/07/19 05:33:10;;;;;;;7.07;4.78;;;22.00;1.00;;;;;;5035282;28;20376;-82
2023/07/19 05:35:36;;;;;;;9.50;4.70;;;22.20;1.00;;;;;;5034511;28;20060;-83
2023/07/19 05:38:03;;;;;;;7.03;4.22;;;22.20;1.00;;;;;;5033873;28;20406;-82
2023/07/19 05:40:32;;;;;;;9.75;5.13;;;22.30;1.00;;;;;;5021675;28;20269;-85
2023/07/19 05:42:58;;;;;;;6.05;4.13;;;22.50;1.00;;;;;;5025902;28;20053;-84
2023/07/19 05:45:24;;;;;;;9.15;4.22;;;22.80;1.00;;;;;;5020389;28;20045;-87
2023/07/19 05:47:51;;;;;;;10.13;4.68;;;23.20;1.00;;;;;;5021385;28;20507;-86
2023/07/19 05:50:17;;;;;;;9.35;5.57;;;23.50;99.90;;;;;;5019498;28;20052;-87
2023/07/19 05:52:43;;;;;;;10.60;5.05;;;23.60;99.90;;;;;;5017615;28;20044;-87
2023/07/19 05:55:09;;;;;;;11.35;4.50;;;23.60;99.90;;;;;;5018443;28;20041;-84
2023/07/19 05:57:35;;;;;;;9.52;4.35;;;23.60;99.90;;;;;;5018332;28;20343;-86
2023/07/19 06:00:13;;;;;;;7.53;4.47;;;23.80;99.90;;;;;;5019842;28;20053;-86
2023/07/19 06:02:41;;;;;;;5.97;4.50;;;23.60;99.90;;;;;;5019088;28;20160;-85
2023/07/19 06:05:07;;;;;;;7.20;4.63;;;23.70;99.90;;;;;;5020841;28;20442;-83
2023/07/19 06:07:35;;;;;;;8.45;5.65;;;24.00;99.90;;;;;;5019161;28;20040;-84
2023/07/19 06:10:04;;;;;;;8.98;4.70;;;24.10;99.90;;;;;;5020354;28;20489;-86
2023/07/19 06:12:31;;;;;;;10.18;5.18;;;23.90;99.90;;;;;;5018525;28;20030;-86
2023/07/19 06:14:57;;;;;;;10.85;5.47;;;23.90;99.90;;;;;;5021093;28;20041;-84
2023/07/19 06:17:24;;;;;;;7.03;4.50;;;24.20;99.90;;;;;;5019129;28;20261;-85
2023/07/19 06:19:50;;;;;;;11.05;5.70;;;24.60;99.90;;;;;;5017270;28;20037;-88
2023/07/19 06:22:16;;;;;;;6.78;4.32;;;25.00;99.90;;;;;;5019995;28;20049;-88
2023/07/19 06:24:42;;;;;;;9.02;6.05;;;25.20;99.90;;;;;;5021323;28;20041;-86
2023/07/19 06:27:08;;;;;;;7.10;4.50;;;25.20;99.90;;;;;;5021356;28;20056;-87
2023/07/19 06:29:34;;;;;;;9.52;5.88;;;25.20;99.90;;;;;;5020475;28;20054;-84
2023/07/19 06:32:01;;;;;;;9.40;5.30;;;25.20;99.90;;;;;;5034522;28;20052;-85
2023/07/19 06:34:27;;;;;;;9.45;6.13;;;25.30;99.90;;;;;;5019911;28;20406;-86
2023/07/19 06:36:53;;;;;;;8.00;4.95;;;25.50;99.90;;;;;;5035963;28;20056;-86
2023/07/19 06:39:19;;;;;;;13.05;5.65;;;25.50;99.90;;;;;;5032668;28;20410;-85
2023/07/19 06:41:45;;;;;;;9.82;5.47;;;25.50;99.90;;;;;;5025222;28;20037;-85
2023/07/19 06:44:12;;;;;;;8.57;5.03;;;25.50;99.90;;;;;;5051877;28;20060;-84
2023/07/19 06:46:38;;;;;;;7.13;4.95;;;25.80;99.90;;;;;;5074228;28;20043;-88
2023/07/19 06:49:05;;;;;;;9.32;5.90;;;25.90;99.90;;;;;;5043096;28;20042;-84
2023/07/19 06:51:31;;;;;;;8.32;5.05;;;26.00;99.90;;;;;;5062984;28;20031;-84
2023/07/19 06:53:57;;;;;;;12.55;5.20;;;25.50;99.90;;;;;;5045753;28;20056;-87
2023/07/19 06:56:23;;;;;;;10.18;5.65;;;25.80;99.90;;;;;;5034194;28;20040;-86
2023/07/19 06:58:49;;;;;;;6.28;4.68;;;26.10;99.90;;;;;;5035879;28;20041;-86
2023/07/19 07:01:16;;;;;;;9.90;5.88;;;26.40;99.90;;;;;;5035446;28;20359;-89
2023/07/19 07:03:42;;;;;;;10.57;6.25;;;26.50;42.80;;;;;;5037137;28;20064;-89
2023/07/19 07:06:08;;;;;;;9.38;5.45;;;25.00;99.90;;;;;;5038929;28;20045;-90
2023/07/19 07:08:34;;;;;;;7.90;5.53;;;24.50;99.90;;;;;;5035775;28;20038;-88
2023/07/19 07:11:01;;;;;;;8.88;5.18;;;25.20;99.90;;;;;;5036483;28;20046;-87
2023/07/19 07:13:28;;;;;;;8.40;5.25;;;25.90;99.90;;;;;;5034803;28;20382;-87
2023/07/19 07:15:54;;;;;;;8.60;5.40;;;26.60;18.50;;;;;;5052961;28;20037;-88
2023/07/19 07:18:20;;;;;;;12.77;11.52;;;25.60;92.80;;;;;;5038063;28;20056;-89
2023/07/19 07:20:46;;;;;;;9.43;5.47;;;25.80;99.90;;;;;;5031611;28;20463;-88
2023/07/19 07:23:12;;;;;;;12.32;11.15;;;26.30;50.60;;;;;;5052413;28;20033;-87
2023/07/19 07:25:39;;;;;;;9.70;5.95;;;26.80;11.30;;;;;;5039362;28;20489;-90
2023/07/19 07:28:05;;;;;;;11.73;9.55;;;27.00;1.00;;;;;;5032612;28;20033;-87
2023/07/19 07:30:37;;;;;;;10.23;6.32;;;26.10;55.80;;;;;;5035633;28;20033;-87
2023/07/19 07:33:06;;;;;;;11.57;6.43;;;26.30;29.10;;;;;;5040256;28;20084;-86
2023/07/19 07:35:33;;;;;;;9.13;6.28;;;26.20;21.70;;;;;;5031127;28;20042;-88
2023/07/19 07:37:59;;;;;;;9.15;5.70;;;26.10;1.00;;;;;;5033736;28;20462;-86
2023/07/19 07:40:25;;;;;;;9.88;6.22;;;26.00;3.10;;;;;;5034663;28;20025;-90
2023/07/19 07:42:51;;;;;;;12.98;5.93;;;26.20;5.90;;;;;;5050400;28;20029;-87
2023/07/19 07:45:17;;;;;;;10.40;6.10;;;26.70;10.70;;;;;;5035993;28;20478;-87
2023/07/19 07:47:44;;;;;;;11.13;5.18;;;27.40;1.00;;;;;;5029660;28;20049;-88
2023/07/19 07:50:10;;;;;;;10.82;7.43;;;27.50;1.00;;;;;;5027207;28;20041;-88
2023/07/19 07:52:36;;;;;;;12.35;7.32;;;27.60;1.00;;;;;;5032286;28;20026;-88
2023/07/19 07:55:06;;;;;;;12.40;6.40;;;27.10;1.00;;;;;;5028564;28;20074;-88
2023/07/19 07:57:37;;;;;;;14.60;6.85;;;27.20;1.00;;;;;;5024038;28;20501;-89
2023/07/19 08:00:06;;;;;;;12.43;7.00;;;27.50;1.00;;;;;;5029202;28;20067;-89
2023/07/19 08:02:34;;;;;;;10.48;5.88;;;27.90;1.00;;;;;;5031432;28;20529;-89
2023/07/19 08:05:01;;;;;;;11.95;6.63;;;27.70;1.00;;;;;;5035601;28;20033;-90
2023/07/19 08:07:27;;;;;;;9.88;5.30;;;27.60;1.00;;;;;;5038786;28;20342;-88
2023/07/19 08:09:53;;;;;;;12.68;5.65;;;27.80;1.00;;;;;;5051943;28;20030;-88
2023/07/19 08:12:19;;;;;;;11.93;5.65;;;27.80;1.00;;;;;;5046890;28;20037;-89
2023/07/19 08:14:45;;;;;;;10.10;4.28;;;27.60;1.00;;;;;;5037291;28;20043;-89
2023/07/19 08:17:11;;;;;;;6.80;4.72;;;27.90;1.00;;;;;;5042789;28;20028;-88
2023/07/19 08:19:38;;;;;;;6.68;4.78;;;28.40;1.00;;;;;;5043003;28;20040;-86
2023/07/19 08:22:05;;;;;;;7.68;5.05;;;28.00;1.00;;;;;;5044944;28;20042;-88
2023/07/19 08:24:31;;;;;;;6.47;3.78;;;27.40;1.00;;;;;;5050316;28;20033;-89
2023/07/19 08:26:58;;;;;;;10.77;3.30;;;27.60;1.00;;;;;;5039122;28;20061;-90
2023/07/19 08:29:26;;;;;;;9.43;4.32;;;27.40;1.00;;;;;;5043373;28;20048;-89
2023/07/19 08:31:52;;;;;;;7.32;2.97;;;27.60;1.00;;;;;;5043013;28;20036;-90
2023/07/19 08:34:19;;;;;;;5.20;3.05;;;28.40;99.90;;;;;;5037607;28;20076;-89
2023/07/19 08:36:45;;;;;;;10.75;3.92;;;28.50;99.90;;;;;;5034456;28;20033;-92
2023/07/19 08:39:12;;;;;;;7.78;3.17;;;28.00;99.90;;;;;;5037563;28;20038;-88
2023/07/19 08:41:38;;;;;;;7.00;3.10;;;28.40;99.90;;;;;;5034085;28;20033;-90
2023/07/19 08:44:04;;;;;;;6.70;3.38;;;29.20;99.90;;;;;;5036995;28;20044;-90
2023/07/19 08:46:33;;;;;;;7.40;2.45;;;29.10;99.90;;;;;;5034069;28;20041;-91
2023/07/19 08:48:59;;;;;;;7.65;2.58;;;29.30;99.90;;;;;;5049484;28;20049;-90
2023/07/19 08:51:26;;;;;;;6.30;2.33;;;28.70;99.90;;;;;;5036623;28;20038;-91
2023/07/19 08:53:52;;;;;;;3.63;2.65;;;28.30;99.90;;;;;;5032117;28;20036;-91
2023/07/19 08:56:20;;;;;;;5.72;2.08;;;27.90;99.90;;;;;;5037191;28;20049;-89
2023/07/19 08:58:46;;;;;;;5.78;2.58;;;27.40;99.90;;;;;;5034626;28;20494;-90
2023/07/19 09:01:14;;;;;;;5.72;2.75;;;27.20;99.90;;;;;;5033443;28;20049;-90
2023/07/19 09:03:40;;;;;;;9.55;2.30;;;27.20;99.90;;;;;;5034069;28;20029;-91
2023/07/19 09:06:07;;;;;;;4.57;2.50;;;28.20;99.90;;;;;;5034594;28;20042;-91
2023/07/19 09:08:38;;;;;;;6.28;3.00;;;28.80;99.90;;;;;;5033295;28;20033;-90
2023/07/19 09:11:05;;;;;;;4.80;2.33;;;29.40;99.90;;;;;;5051876;28;20041;-84
2023/07/19 09:13:37;;;;;;;5.05;2.03;;;29.90;99.90;;;;;;5073353;28;20020;-90
2023/07/19 09:16:04;;;;;;;4.75;2.17;;;30.10;99.90;;;;;;5048050;28;20013;-87
2023/07/19 09:18:37;;;;;;;2.63;2.00;;;30.80;99.90;;;;;;5061245;28;20037;-86
2023/07/19 09:21:06;;;;;;;3.90;2.47;;;31.20;99.90;;;;;;5040206;28;20044;-87
2023/07/19 09:23:37;;;;;;;1.80;1.25;;;30.40;99.90;;;;;;5036440;28;20026;-88
2023/07/19 09:26:05;;;;;;;5.68;2.15;;;30.60;99.90;;;;;;5031457;28;20060;-87
2023/07/19 09:28:34;;;;;;;5.07;1.88;;;30.10;99.90;;;;;;5034236;28;20060;-89
2023/07/19 09:31:05;;;;;;;3.63;1.65;;;29.70;99.90;;;;;;5048341;28;20034;-88
2023/07/19 09:33:31;;;;;;;3.88;1.73;;;29.70;99.90;;;;;;5037080;28;20374;-88
2023/07/19 09:35:58;;;;;;;4.43;2.08;;;30.00;99.90;;;;;;5036022;28;20060;-89
2023/07/19 09:38:25;;;;;;;4.35;1.92;;;29.90;99.90;;;;;;5029611;28;20474;-89
2023/07/19 09:40:53;;;;;;;4.18;1.52;;;29.70;99.90;;;;;;5032257;28;20030;-90
2023/07/19 09:43:20;;;;;;;3.88;1.67;;;30.10;99.90;;;;;;5036977;28;20037;-90
2023/07/19 09:45:48;;;;;;;4.05;1.75;;;30.40;99.90;;;;;;5035032;28;20037;-90
2023/07/19 09:48:15;;;;;;;3.30;1.45;;;30.20;99.90;;;;;;5031599;28;20390;-87
2023/07/19 09:50:42;;;;;;;4.05;1.85;;;30.00;99.90;;;;;;5037572;28;20034;-91
2023/07/19 09:53:12;;;;;;;3.50;1.73;;;29.10;99.90;;;;;;5032674;28;20045;-87
2023/07/19 09:55:40;;;;;;;5.50;2.00;;;29.70;99.90;;;;;;5035677;28;20048;-88
2023/07/19 09:58:13;;;;;;;2.72;1.50;;;29.50;99.90;;;;;;5040679;28;20478;-88
2023/07/19 10:00:40;;;;;;;3.22;1.38;;;29.40;99.90;;;;;;5037056;28;20053;-88
2023/07/19 10:03:10;;;;;;;4.00;1.88;;;29.80;99.90;;;;;;5027849;28;20045;-88
2023/07/19 10:05:37;;;;;;;7.03;1.58;;;30.10;99.90;;;;;;5036903;28;20049;-88
2023/07/19 10:08:10;;;;;;;4.82;1.85;;;29.80;99.90;;;;;;5035769;28;20032;-85
2023/07/19 10:10:42;;;;;;;2.67;1.60;;;29.40;99.90;;;;;;5035629;28;20033;-86
2023/07/19 10:13:08;;;;;;;2.97;1.23;;;28.60;99.90;;;;;;5033302;28;20069;-89
2023/07/19 10:15:36;;;;;;;4.18;1.58;;;28.80;99.90;;;;;;5034470;28;20041;-88
2023/07/19 10:18:09;;;;;;;3.05;1.65;;;29.90;99.90;;;;;;5015502;28;20517;-85
2023/07/19 10:20:36;;;;;;;3.97;2.13;;;30.70;99.90;;;;;;5041935;28;20033;-88
2023/07/19 10:23:08;;;;;;;4.28;1.70;;;31.00;99.90;;;;;;5033669;28;20064;-88
2023/07/19 10:25:48;;;;;;;8.93;2.10;;;31.20;99.90;;;;;;5033005;28;20033;-88
2023/07/19 10:28:25;;;;;;;3.67;1.38;;;31.00;99.90;;;;;;5034173;28;20033;-88
2023/07/19 10:31:00;;;;;;;5.10;2.42;;;30.50;99.90;;;;;;5031358;28;20040;-86
2023/07/19 10:33:28;;;;;;;3.10;2.22;;;30.00;99.90;;;;;;5033811;28;20022;-89
2023/07/19 10:36:13;;;;;;;3.90;1.55;;;29.50;99.90;;;;;;5036828;28;20041;-91
2023/07/19 10:38:40;;;;;;;3.58;1.60;;;30.20;99.90;;;;;;5043868;28;20037;-91
2023/07/19 10:41:07;;;;;;;5.25;1.30;;;30.20;99.90;;;;;;5035089;28;20026;-90
2023/07/19 10:43:35;;;;;;;3.22;1.63;;;29.80;99.90;;;;;;5048324;28;20048;-89
2023/07/19 10:46:05;;;;;;;4.50;1.63;;;29.40;99.90;;;;;;5030921;28;20045;-87
2023/07/19 10:48:33;;;;;;;6.90;1.27;;;29.40;99.90;;;;;;5035094;28;20029;-86
2023/07/19 10:51:01;;;;;;;5.32;1.73;;;29.30;99.90;;;;;;5032980;28;20025;-88
2023/07/19 10:53:28;;;;;;;3.58;1.25;;;29.90;99.90;;;;;;5033926;28;20037;-86
2023/07/19 10:55:55;;;;;;;5.72;1.15;;;30.00;99.90;;;;;;5035638;28;20044;-89
2023/07/19 10:58:21;;;;;;;4.55;1.50;;;29.90;99.90;;;;;;5031855;28;20042;-88
2023/07/19 11:00:49;;;;;;;3.03;1.60;;;30.40;99.90;;;;;;5031673;28;20049;-89
2023/07/19 11:03:16;;;;;;;3.67;1.55;;;30.90;99.90;;;;;;5033339;28;20041;-88
2023/07/19 11:05:49;;;;;;;3.28;1.42;;;30.70;99.90;;;;;;5027866;28;20042;-87
2023/07/19 11:08:26;;;;;;;5.13;1.65;;;30.80;99.90;;;;;;5018995;28;20040;-81
2023/07/19 11:10:54;;;;;;;4.38;1.30;;;31.10;99.90;;;;;;5022769;28;20053;-83
2023/07/19 11:13:23;;;;;;;2.67;1.67;;;31.20;99.90;;;;;;5021315;28;20030;-84
2023/07/19 11:16:00;;;;;;;4.38;1.63;;;31.20;99.90;;;;;;5040997;28;20042;-85
2023/07/19 11:18:29;;;;;;;5.13;1.50;;;31.20;99.90;;;;;;5037983;28;20025;-84
2023/07/19 11:20:59;;;;;;;3.33;2.00;;;31.20;99.90;;;;;;5028022;28;20057;-80
2023/07/19 11:23:26;;;;;;;2.80;1.33;;;30.90;99.90;;;;;;5030668;28;20364;-84
2023/07/19 11:26:06;;;;;;;3.88;1.33;;;30.90;99.90;;;;;;5032065;28;20040;-83
2023/07/19 11:28:41;;;;;;;2.70;1.10;;;30.90;99.90;;;;;;5036827;28;20037;-85
2023/07/19 11:31:10;;;;;;;3.17;1.58;;;31.10;99.90;;;;;;5041618;28;20052;-78
2023/07/19 11:33:36;;;;;;;3.95;1.58;;;31.10;99.90;;;;;;5045313;28;20036;-77
2023/07/19 11:36:07;;;;;;;3.25;1.45;;;30.70;99.90;;;;;;5047589;28;20048;-85
2023/07/19 11:38:37;;;;;;;2.75;1.55;;;31.00;99.90;;;;;;5039561;28;20037;-83
2023/07/19 11:41:03;;;;;;;5.57;1.98;;;31.30;99.90;;;;;;5038519;28;20040;-83
2023/07/19 11:43:29;;;;;;;4.00;1.70;;;31.30;99.90;;;;;;5029342;28;20454;-83
2023/07/19 11:45:56;;;;;;;3.70;1.52;;;31.10;99.90;;;;;;5038574;28;20045;-82
2023/07/19 11:48:23;;;;;;;5.18;1.98;;;31.10;99.90;;;;;;5041503;28;20076;-83
2023/07/19 11:50:49;;;;;;;1.75;1.10;;;31.20;99.90;;;;;;5036964;28;20362;-84
2023/07/19 11:53:16;;;;;;;3.22;1.63;;;31.00;99.90;;;;;;5051845;28;20050;-86
2023/07/19 11:55:44;;;;;;;5.03;1.27;;;30.60;99.90;;;;;;5034551;28;20144;-83
2023/07/19 11:58:10;;;;;;;2.80;1.65;;;30.30;99.90;;;;;;5035228;28;20041;-82
2023/07/19 12:00:37;;;;;;;3.72;1.20;;;30.20;99.90;;;;;;5030468;28;20107;-83
2023/07/19 12:03:03;;;;;;;29.90;10.07;;;30.40;99.90;;;;;;5054009;28;20041;-81
2023/07/19 12:05:29;;;;;;;5.53;5.15;;;30.50;99.90;;;;;;5037007;28;20470;-82
2023/07/19 12:07:58;;;;;;;1.80;1.30;;;30.30;99.90;;;;;;5034325;28;20033;-84
2023/07/19 12:10:26;;;;;;;6.78;6.32;;;30.40;99.90;;;;;;5028495;28;20033;-84
2023/07/19 12:12:54;;;;;;;3.92;1.58;;;30.20;99.90;;;;;;5033798;28;20052;-84
2023/07/19 12:15:20;;;;;;;4.78;1.20;;;30.00;99.90;;;;;;5030687;28;20052;-82
2023/07/19 12:17:46;;;;;;;4.22;2.00;;;30.00;99.90;;;;;;5036578;28;20454;-82
2023/07/19 12:20:13;;;;;;;3.80;3.50;;;29.40;99.90;;;;;;5033625;28;20052;-82
2023/07/19 12:22:43;;;;;;;5.45;1.50;;;29.10;99.90;;;;;;5036736;28;20370;-82
2023/07/19 12:25:10;;;;;;;4.82;1.33;;;28.90;99.90;;;;;;5033762;28;20135;-83
2023/07/19 12:27:37;;;;;;;2.40;1.50;;;28.90;99.90;;;;;;5036139;28;20053;-80
2023/07/19 12:30:03;;;;;;;0.20;0.20;;;28.50;99.90;;;;;;5037745;28;20389;-83
2023/07/19 12:32:30;;;;;;;1.00;0.57;;;28.50;99.90;;;;;;5036426;28;20502;-81
2023/07/19 12:34:56;;;;;;;0.70;0.50;;;28.40;99.90;;;;;;5036231;28;20056;-79
2023/07/19 12:37:23;;;;;;;0.30;0.30;;;28.30;99.90;;;;;;5032410;28;20037;-80
2023/07/19 12:39:50;;;;;;;0.45;0.40;;;28.30;99.90;;;;;;5032974;28;20467;-81
2023/07/19 12:42:16;;;;;;;0.63;0.35;;;28.80;99.90;;;;;;5049288;28;20541;-83
2023/07/19 12:44:43;;;;;;;0.50;0.32;;;29.30;99.90;;;;;;5051056;28;20041;-80
2023/07/19 12:47:09;;;;;;;0.20;0.20;;;29.20;99.90;;;;;;5036996;28;20469;-80
2023/07/19 12:49:35;;;;;;;0.30;0.28;;;29.10;99.90;;;;;;5040754;28;20037;-81
2023/07/19 12:52:01;;;;;;;1.33;0.28;;;29.10;99.90;;;;;;5033621;28;20038;-81